createdAt,value
2022-11-22T00:00:16.308Z,7.80
2022-11-22T00:02:42.902Z,7.80
2022-11-22T00:05:09.608Z,7.80
2022-11-22T00:07:37.798Z,7.80
2022-11-22T00:10:09.146Z,7.80
2022-11-22T00:12:35.863Z,7.80
2022-11-22T00:15:02.611Z,7.70
2022-11-22T00:17:29.187Z,7.70
2022-11-22T00:19:55.793Z,7.80
2022-11-22T00:22:22.381Z,7.80
2022-11-22T00:24:51.333Z,7.80
2022-11-22T00:27:18.653Z,7.80
2022-11-22T00:29:45.237Z,7.70
2022-11-22T00:32:11.869Z,7.70
2022-11-22T00:34:38.583Z,7.60
2022-11-22T00:37:05.215Z,7.70
2022-11-22T00:39:32.042Z,7.70
2022-11-22T00:41:58.846Z,7.80
2022-11-22T00:44:25.510Z,7.70
2022-11-22T00:46:52.300Z,7.70
2022-11-22T00:49:18.919Z,7.70
2022-11-22T00:51:45.538Z,7.70
2022-11-22T00:54:12.131Z,7.60
2022-11-22T00:56:38.726Z,7.60
2022-11-22T00:59:05.290Z,7.60
2022-11-22T01:01:31.993Z,7.70
2022-11-22T01:03:58.621Z,7.70
2022-11-22T01:06:25.249Z,7.60
2022-11-22T01:08:51.814Z,7.60
2022-11-22T01:11:19.262Z,7.60
2022-11-22T01:13:45.935Z,7.60
2022-11-22T01:16:13.690Z,7.70
2022-11-22T01:18:40.684Z,7.70
2022-11-22T01:21:07.432Z,7.80
2022-11-22T01:23:34.611Z,7.70
2022-11-22T01:26:01.775Z,7.80
2022-11-22T01:28:28.396Z,7.80
2022-11-22T01:30:55.374Z,7.80
2022-11-22T01:33:22.016Z,7.80
2022-11-22T01:35:48.759Z,7.70
2022-11-22T01:38:15.365Z,7.70
2022-11-22T01:40:42.232Z,7.70
2022-11-22T01:43:18.011Z,7.70
2022-11-22T01:45:56.415Z,7.60
2022-11-22T01:48:25.679Z,7.60
2022-11-22T01:51:02.752Z,7.60
2022-11-22T01:53:34.850Z,7.60
2022-11-22T01:56:03.892Z,7.50
2022-11-22T01:58:33.356Z,7.50
2022-11-22T02:01:01.437Z,7.50
2022-11-22T02:03:29.469Z,7.50
2022-11-22T02:05:56.943Z,7.60
2022-11-22T02:08:39.282Z,7.60
2022-11-22T02:11:07.375Z,7.60
2022-11-22T02:13:39.179Z,7.60
2022-11-22T02:16:06.792Z,7.60
2022-11-22T02:18:37.386Z,7.60
2022-11-22T02:21:05.542Z,7.70
2022-11-22T02:23:40.942Z,7.60
2022-11-22T02:26:07.710Z,7.70
2022-11-22T02:28:37.517Z,7.70
2022-11-22T02:31:04.205Z,7.70
2022-11-22T02:33:30.809Z,7.70
2022-11-22T02:35:57.639Z,7.70
2022-11-22T02:38:27.938Z,7.70
2022-11-22T02:40:54.442Z,7.60
2022-11-22T02:43:37.812Z,7.70
2022-11-22T02:46:09.960Z,7.60
2022-11-22T02:48:43.963Z,7.60
2022-11-22T02:51:16.561Z,7.50
2022-11-22T02:53:43.995Z,7.40
2022-11-22T02:56:10.594Z,7.30
2022-11-22T02:58:37.259Z,7.40
2022-11-22T03:01:04.154Z,7.30
2022-11-22T03:03:32.653Z,7.30
2022-11-22T03:05:59.253Z,7.30
2022-11-22T03:08:25.795Z,7.20
2022-11-22T03:10:52.350Z,7.20
2022-11-22T03:13:18.965Z,7.30
2022-11-22T03:15:48.649Z,7.20
2022-11-22T03:18:15.221Z,7.20
2022-11-22T03:20:41.796Z,7.10
2022-11-22T03:23:08.384Z,7.10
2022-11-22T03:25:38.012Z,7.20
2022-11-22T03:28:04.740Z,7.20
2022-11-22T03:30:31.585Z,7.20
2022-11-22T03:32:58.165Z,7.30
2022-11-22T03:35:24.790Z,7.30
2022-11-22T03:37:51.363Z,7.40
2022-11-22T03:40:18.084Z,7.40
2022-11-22T03:42:44.651Z,7.40
2022-11-22T03:45:11.239Z,7.30
2022-11-22T03:47:37.805Z,7.30
2022-11-22T03:50:05.588Z,7.30
2022-11-22T03:52:32.368Z,7.30
2022-11-22T03:54:59.001Z,7.30
2022-11-22T03:57:25.591Z,7.20
2022-11-22T03:59:52.168Z,7.20
2022-11-22T04:02:18.714Z,7.20
2022-11-22T04:04:45.276Z,7.10
2022-11-22T04:07:11.910Z,7.00
2022-11-22T04:09:38.565Z,6.90
2022-11-22T04:12:05.363Z,7.00
2022-11-22T04:14:50.354Z,7.00
2022-11-22T04:17:39.602Z,6.90
2022-11-22T04:20:27.443Z,7.00
2022-11-22T04:23:17.381Z,7.00
2022-11-22T04:25:49.730Z,7.00
2022-11-22T04:28:19.044Z,7.10
2022-11-22T04:31:04.481Z,7.20
2022-11-22T04:33:31.307Z,7.20
2022-11-22T04:35:57.894Z,7.20
2022-11-22T04:38:24.770Z,7.20
2022-11-22T04:40:51.593Z,7.20
2022-11-22T04:43:45.327Z,7.10
2022-11-22T04:46:12.662Z,7.10
2022-11-22T04:48:39.825Z,7.20
2022-11-22T04:51:25.766Z,7.10
2022-11-22T04:53:52.417Z,7.10
2022-11-22T04:56:19.479Z,7.10
2022-11-22T04:58:46.197Z,7.10
2022-11-22T05:01:12.923Z,7.10
2022-11-22T05:03:39.505Z,7.10
2022-11-22T05:06:06.176Z,7.10
2022-11-22T05:08:32.970Z,7.10
2022-11-22T05:10:59.808Z,7.00
2022-11-22T05:13:37.771Z,7.10
2022-11-22T05:16:07.290Z,7.10
2022-11-22T05:18:34.636Z,7.10
2022-11-22T05:21:11.899Z,7.10
2022-11-22T05:23:57.047Z,7.20
2022-11-22T05:26:24.770Z,7.10
2022-11-22T05:28:52.122Z,7.10
2022-11-22T05:31:24.648Z,7.20
2022-11-22T05:33:53.069Z,7.10
2022-11-22T05:36:20.313Z,7.10
2022-11-22T05:38:47.451Z,7.10
2022-11-22T05:41:15.494Z,7.20
2022-11-22T05:43:42.436Z,7.20
2022-11-22T05:46:22.537Z,7.20
2022-11-22T05:48:51.628Z,7.20
2022-11-22T05:51:21.089Z,7.30
2022-11-22T05:53:48.214Z,7.30
2022-11-22T05:56:20.066Z,7.40
2022-11-22T05:58:47.110Z,7.40
2022-11-22T06:01:19.384Z,7.40
2022-11-22T06:03:46.846Z,7.40
2022-11-22T06:06:14.540Z,7.40
2022-11-22T06:08:43.223Z,7.40
2022-11-22T06:11:21.396Z,7.40
2022-11-22T06:13:51.098Z,7.40
2022-11-22T06:16:18.107Z,7.40
2022-11-22T06:18:45.055Z,7.40
2022-11-22T06:21:17.064Z,7.40
2022-11-22T06:23:44.259Z,7.40
2022-11-22T06:26:16.764Z,7.40
2022-11-22T06:28:44.031Z,7.40
2022-11-22T06:31:19.192Z,7.40
2022-11-22T06:33:46.702Z,7.30
2022-11-22T06:36:18.990Z,7.30
2022-11-22T06:38:46.500Z,7.40
2022-11-22T06:41:19.478Z,7.30
2022-11-22T06:43:49.198Z,7.30
2022-11-22T06:46:20.835Z,7.30
2022-11-22T06:48:48.093Z,7.30
2022-11-22T06:51:21.664Z,7.40
2022-11-22T06:53:49.783Z,7.30
2022-11-22T06:56:32.052Z,7.40
2022-11-22T06:59:03.749Z,7.40
2022-11-22T07:01:31.603Z,7.40
2022-11-22T07:03:59.516Z,7.40
2022-11-22T07:06:28.421Z,7.40
2022-11-22T07:08:55.200Z,7.50
2022-11-22T07:11:25.610Z,7.50
2022-11-22T07:13:53.838Z,7.50
2022-11-22T07:16:21.709Z,7.50
2022-11-22T07:18:48.961Z,7.50
2022-11-22T07:21:23.281Z,7.40
2022-11-22T07:23:52.265Z,7.50
2022-11-22T07:26:20.491Z,7.50
2022-11-22T07:28:47.897Z,7.40
2022-11-22T07:31:16.535Z,7.40
2022-11-22T07:33:43.744Z,7.40
2022-11-22T07:36:16.259Z,7.40
2022-11-22T07:38:42.886Z,7.30
2022-11-22T07:41:09.900Z,7.20
2022-11-22T07:43:36.896Z,7.30
2022-11-22T07:46:05.789Z,7.30
2022-11-22T07:48:32.618Z,7.30
2022-11-22T07:51:04.726Z,7.30
2022-11-22T07:53:31.958Z,7.30
2022-11-22T07:56:02.072Z,7.30
2022-11-22T07:58:28.831Z,7.20
2022-11-22T08:00:55.390Z,7.30
2022-11-22T08:03:28.362Z,7.40
2022-11-22T08:06:03.098Z,7.30
2022-11-22T08:08:30.090Z,7.30
2022-11-22T08:10:56.818Z,7.30
2022-11-22T08:13:23.695Z,7.30
2022-11-22T08:15:52.406Z,7.30
2022-11-22T08:18:21.292Z,7.40
2022-11-22T08:20:47.970Z,7.40
2022-11-22T08:23:14.677Z,7.40
2022-11-22T08:25:41.388Z,7.40
2022-11-22T08:28:07.975Z,7.40
2022-11-22T08:30:34.646Z,7.40
2022-11-22T08:33:01.228Z,7.40
2022-11-22T08:35:27.810Z,7.50
2022-11-22T08:37:57.906Z,7.60
2022-11-22T08:40:24.658Z,7.60
2022-11-22T08:42:54.419Z,7.60
2022-11-22T08:45:20.977Z,7.60
2022-11-22T08:47:48.968Z,7.70
2022-11-22T08:50:17.202Z,7.70
2022-11-22T08:52:43.919Z,7.80
2022-11-22T08:55:10.550Z,7.80
2022-11-22T08:57:37.115Z,7.80
2022-11-22T09:00:06.122Z,7.80
2022-11-22T09:02:32.800Z,7.90
2022-11-22T09:04:59.383Z,7.80
2022-11-22T09:10:12.782Z,7.90
2022-11-22T09:12:44.466Z,7.80
2022-11-22T09:15:11.504Z,7.80
2022-11-22T09:17:38.248Z,7.90
2022-11-22T09:20:05.781Z,7.80
2022-11-22T09:22:32.678Z,7.90
2022-11-22T09:24:59.254Z,7.80
2022-11-22T09:27:26.854Z,7.80
2022-11-22T09:29:53.463Z,7.80
2022-11-22T09:32:20.050Z,7.70
2022-11-22T09:34:46.702Z,7.80
2022-11-22T09:37:17.125Z,7.80
2022-11-22T09:39:48.509Z,7.90
2022-11-22T09:42:44.535Z,7.80
2022-11-22T09:45:34.954Z,7.80
2022-11-22T09:48:23.383Z,7.80
2022-11-22T09:51:05.993Z,7.80
2022-11-22T09:53:56.890Z,7.80
2022-11-22T09:56:27.012Z,7.90
2022-11-22T09:59:20.038Z,8.00
2022-11-22T10:02:17.589Z,8.00
2022-11-22T10:04:57.758Z,7.90
2022-11-22T10:07:48.203Z,7.90
2022-11-22T10:10:17.359Z,8.10
2022-11-22T10:12:53.874Z,8.10
2022-11-22T10:15:39.242Z,8.20
2022-11-22T10:18:11.661Z,8.20
2022-11-22T10:20:47.335Z,8.20
2022-11-22T10:23:22.575Z,8.20
2022-11-22T10:25:58.742Z,8.20
2022-11-22T10:28:48.726Z,8.10
2022-11-22T10:31:21.806Z,8.10
2022-11-22T10:34:13.261Z,8.10
2022-11-22T10:36:56.931Z,8.00
2022-11-22T10:39:38.092Z,8.00
2022-11-22T10:42:26.346Z,8.00
2022-11-22T10:45:05.052Z,8.10
2022-11-22T10:47:55.687Z,8.10
2022-11-22T10:50:32.015Z,8.00
2022-11-22T10:53:19.097Z,8.00
2022-11-22T10:56:06.093Z,8.00
2022-11-22T10:59:00.610Z,8.00
2022-11-22T11:01:47.817Z,8.10
2022-11-22T11:04:16.491Z,8.20
2022-11-22T11:07:10.999Z,8.20
2022-11-22T11:12:39.328Z,8.30
2022-11-22T11:15:16.201Z,8.40
2022-11-22T11:17:45.742Z,8.30
2022-11-22T11:20:37.405Z,8.30
2022-11-22T11:23:14.831Z,8.30
2022-11-22T11:25:44.264Z,8.30
2022-11-22T11:28:30.038Z,8.30
2022-11-22T11:31:01.282Z,8.40
2022-11-22T11:33:29.346Z,8.50
2022-11-22T11:36:02.147Z,8.50
2022-11-22T11:38:32.181Z,8.60
2022-11-22T11:41:16.601Z,8.60
2022-11-22T11:43:43.930Z,8.50
2022-11-22T11:46:20.118Z,8.50
2022-11-22T11:48:48.175Z,8.50
2022-11-22T11:51:14.821Z,8.60
2022-11-22T11:54:01.571Z,8.60
2022-11-22T11:56:37.111Z,8.60
2022-11-22T11:59:17.256Z,8.60
2022-11-22T12:01:55.327Z,8.60
2022-11-22T12:04:29.814Z,8.70
2022-11-22T12:07:03.783Z,8.60
2022-11-22T12:09:36.282Z,8.50
2022-11-22T12:12:12.588Z,8.60
2022-11-22T12:15:09.845Z,8.70
2022-11-22T12:17:34.812Z,8.70
2022-11-22T12:20:10.776Z,8.80
2022-11-22T12:22:51.127Z,8.70
2022-11-22T12:25:38.323Z,8.80
2022-11-22T12:28:23.619Z,8.80
2022-11-22T12:31:17.366Z,8.80
2022-11-22T12:33:50.072Z,8.80
2022-11-22T12:36:23.726Z,8.80
2022-11-22T12:38:53.425Z,8.80
2022-11-22T12:41:23.988Z,8.80
2022-11-22T12:43:55.387Z,8.90
2022-11-22T12:46:46.522Z,8.90
2022-11-22T12:49:16.876Z,9.00
2022-11-22T12:51:57.842Z,9.00
2022-11-22T12:54:37.280Z,8.90
2022-11-22T12:57:18.671Z,9.00
2022-11-22T13:00:16.495Z,9.00
2022-11-22T13:03:04.251Z,9.00
2022-11-22T13:05:49.065Z,9.00
2022-11-22T13:08:37.172Z,8.80
2022-11-22T13:11:25.746Z,8.80
2022-11-22T13:13:58.263Z,8.80
2022-11-22T13:16:24.884Z,8.90
2022-11-22T13:18:58.100Z,8.80
2022-11-22T13:22:01.658Z,8.90
2022-11-22T13:24:52.960Z,9.00
2022-11-22T13:27:27.854Z,8.90
2022-11-22T13:29:57.133Z,8.90
2022-11-22T13:32:27.973Z,8.90
2022-11-22T13:35:12.658Z,9.00
2022-11-22T13:37:45.905Z,8.90
2022-11-22T13:40:15.577Z,8.90
2022-11-22T13:42:43.325Z,8.90
2022-11-22T13:45:45.506Z,8.90
2022-11-22T13:48:12.098Z,8.90
2022-11-22T13:50:59.117Z,8.90
2022-11-22T13:53:28.938Z,8.90
2022-11-22T13:55:58.099Z,8.80
2022-11-22T13:58:24.651Z,8.90
2022-11-22T14:00:56.007Z,8.90
2022-11-22T14:03:24.505Z,8.90
2022-11-22T14:05:53.630Z,8.90
2022-11-22T14:08:37.113Z,8.80
2022-11-22T14:11:09.173Z,8.80
2022-11-22T14:14:04.125Z,8.80
2022-11-22T14:16:59.515Z,8.90
2022-11-22T14:19:43.855Z,8.90
2022-11-22T14:22:19.392Z,9.00
2022-11-22T14:24:55.199Z,9.00
2022-11-22T14:27:24.830Z,8.90
2022-11-22T14:30:23.777Z,9.00
2022-11-22T14:33:17.522Z,9.00
2022-11-22T14:36:17.458Z,9.00
2022-11-22T14:38:44.777Z,9.00
2022-11-22T14:41:28.649Z,9.00
2022-11-22T14:44:17.865Z,8.80
2022-11-22T14:46:56.415Z,8.80
2022-11-22T14:49:28.121Z,8.60
2022-11-22T14:51:57.285Z,8.60
2022-11-22T14:54:29.874Z,8.60
2022-11-22T14:57:04.091Z,8.50
2022-11-22T14:59:43.069Z,8.50
2022-11-22T15:02:46.413Z,8.60
2022-11-22T15:09:17.449Z,8.60
2022-11-22T15:09:46.648Z,8.60
2022-11-22T15:12:15.527Z,8.60
2022-11-22T15:59:41.367Z,8.60
2022-11-22T16:02:20.212Z,8.60
2022-11-22T16:06:04.343Z,8.60
2022-11-22T16:07:43.534Z,8.60
2022-11-22T16:10:23.075Z,8.60
2022-11-22T16:12:51.208Z,8.50
2022-11-22T16:15:36.958Z,8.40
2022-11-22T16:18:27.622Z,8.20
2022-11-22T16:21:00.027Z,8.00
2022-11-22T16:23:34.891Z,7.90
2022-11-22T16:26:21.981Z,7.80
2022-11-22T16:28:56.089Z,7.80
2022-11-22T16:31:29.573Z,7.90
2022-11-22T16:33:57.247Z,8.00
2022-11-22T16:36:27.935Z,7.90
2022-11-22T16:38:54.542Z,8.00
2022-11-22T16:41:23.017Z,7.90
2022-11-22T16:43:59.937Z,7.90
2022-11-22T16:46:26.691Z,7.90
2022-11-22T16:48:55.150Z,7.90
2022-11-22T16:51:24.819Z,7.80
2022-11-22T16:53:53.201Z,7.80
2022-11-22T16:56:22.530Z,7.80
2022-11-22T16:58:50.563Z,7.70
2022-11-22T17:01:20.990Z,7.70
2022-11-22T17:03:49.697Z,7.70
2022-11-22T17:06:18.737Z,7.70
2022-11-22T17:08:46.807Z,7.60
2022-11-22T17:11:16.206Z,7.60
2022-11-22T17:13:43.436Z,7.60
2022-11-22T17:16:11.505Z,7.50
2022-11-22T17:18:39.456Z,7.50
2022-11-22T17:21:30.205Z,7.40
2022-11-22T17:24:02.047Z,7.40
2022-11-22T17:26:29.022Z,7.40
2022-11-22T17:28:56.164Z,7.40
2022-11-22T17:31:23.259Z,7.30
2022-11-22T17:33:51.779Z,7.20
2022-11-22T17:36:34.559Z,7.20
2022-11-22T17:39:04.501Z,7.10
2022-11-22T17:41:31.684Z,7.10
2022-11-22T17:43:58.299Z,7.10
2022-11-22T17:46:25.552Z,7.20
2022-11-22T17:48:53.570Z,7.30
2022-11-22T17:51:21.184Z,7.20
2022-11-22T17:53:48.172Z,7.20
2022-11-22T17:56:14.882Z,7.30
2022-11-22T17:58:42.294Z,7.20
2022-11-22T18:01:18.034Z,7.00
2022-11-22T18:03:46.283Z,7.10
2022-11-22T18:06:14.096Z,7.10
2022-11-22T18:08:46.408Z,7.10
2022-11-22T18:11:13.747Z,7.10
2022-11-22T18:13:41.067Z,7.10
2022-11-22T18:16:12.041Z,7.20
2022-11-22T18:21:29.172Z,7.20
2022-11-22T18:24:00.188Z,7.20
2022-11-22T18:26:43.126Z,7.20
2022-11-22T18:29:41.600Z,7.30
2022-11-22T18:31:59.559Z,7.20
2022-11-22T18:34:26.406Z,7.30
2022-11-22T18:36:55.917Z,7.30
2022-11-22T18:39:24.560Z,7.30
2022-11-22T18:41:51.388Z,7.30
2022-11-22T18:44:18.243Z,7.40
2022-11-22T18:46:45.026Z,7.30
2022-11-22T18:49:11.638Z,7.30
2022-11-22T18:51:38.222Z,7.30
2022-11-22T18:54:04.933Z,7.40
2022-11-22T18:56:31.702Z,7.40
2022-11-22T18:58:58.281Z,7.30
2022-11-22T19:01:26.286Z,7.40
2022-11-22T19:03:52.997Z,7.40
2022-11-22T19:06:20.051Z,7.40
2022-11-22T19:08:47.135Z,7.30
2022-11-22T19:11:14.013Z,7.30
2022-11-22T19:13:42.379Z,7.30
2022-11-22T19:16:12.187Z,7.30
2022-11-22T19:18:42.907Z,7.30
2022-11-22T19:21:12.171Z,7.20
2022-11-22T19:23:39.321Z,7.30
2022-11-22T19:26:08.366Z,7.20
2022-11-22T19:28:35.355Z,7.20
2022-11-22T19:31:09.610Z,7.20
2022-11-22T19:33:37.026Z,7.30
2022-11-22T19:36:06.591Z,7.20
2022-11-22T19:38:33.718Z,7.20
2022-11-22T19:41:00.402Z,7.20
2022-11-22T19:43:27.054Z,7.30
2022-11-22T19:45:53.656Z,7.20
2022-11-22T19:48:20.241Z,7.20
2022-11-22T19:50:47.051Z,7.20
2022-11-22T19:53:13.687Z,7.30
2022-11-22T19:55:45.237Z,7.30
2022-11-22T19:58:12.214Z,7.20
2022-11-22T20:00:38.802Z,7.30
2022-11-22T20:03:05.396Z,7.30
2022-11-22T20:05:32.395Z,7.20
2022-11-22T20:07:59.987Z,7.20
2022-11-22T20:10:27.058Z,7.10
2022-11-22T20:12:53.683Z,7.10
2022-11-22T20:15:22.206Z,7.10
2022-11-22T20:17:50.284Z,7.10
2022-11-22T20:20:16.993Z,7.10
2022-11-22T20:22:44.380Z,7.10
2022-11-22T20:25:11.160Z,7.10
2022-11-22T20:27:37.945Z,7.10
2022-11-22T20:30:05.439Z,7.10
2022-11-22T20:32:32.986Z,7.00
2022-11-22T20:35:00.067Z,7.00
2022-11-22T20:37:28.070Z,7.00
2022-11-22T20:39:55.498Z,6.90
2022-11-22T20:42:37.955Z,6.90
2022-11-22T20:45:09.065Z,6.90
2022-11-22T20:47:36.067Z,6.90
2022-11-22T20:50:02.699Z,6.90
2022-11-22T20:52:29.264Z,6.90
2022-11-22T20:54:58.050Z,6.90
2022-11-22T20:57:28.358Z,6.90
2022-11-22T20:59:54.944Z,6.90
2022-11-22T21:02:21.478Z,6.90
2022-11-22T21:04:48.085Z,6.90
2022-11-22T21:07:14.723Z,6.80
2022-11-22T21:09:41.335Z,6.80
2022-11-22T21:12:07.874Z,6.80
2022-11-22T21:14:34.552Z,6.80
2022-11-22T21:17:22.827Z,6.80
2022-11-22T21:19:47.707Z,6.80
2022-11-22T21:22:14.257Z,6.80
2022-11-22T21:24:40.802Z,6.80
2022-11-22T21:27:07.385Z,6.80
2022-11-22T21:29:34.141Z,6.80
2022-11-22T21:32:00.703Z,6.80
2022-11-22T21:34:27.270Z,6.70
2022-11-22T21:36:53.850Z,6.70
2022-11-22T21:39:20.466Z,6.70
2022-11-22T21:41:47.046Z,6.80
2022-11-22T21:44:13.950Z,6.80
2022-11-22T21:46:40.591Z,6.80
2022-11-22T21:49:07.637Z,6.80
2022-11-22T21:51:34.222Z,6.80
2022-11-22T21:54:01.789Z,6.80
2022-11-22T21:56:29.483Z,6.70
2022-11-22T21:58:56.642Z,6.70
2022-11-22T22:01:24.266Z,6.70
2022-11-22T22:03:51.485Z,6.70
2022-11-22T22:06:18.527Z,6.60
2022-11-22T22:08:45.168Z,6.60
2022-11-22T22:11:12.476Z,6.60
2022-11-22T22:13:39.168Z,6.60
2022-11-22T22:16:07.136Z,6.60
2022-11-22T22:18:38.362Z,6.50
2022-11-22T22:21:07.531Z,6.60
2022-11-22T22:23:35.021Z,6.60
2022-11-22T22:26:04.152Z,6.50
2022-11-22T22:28:32.480Z,6.50
2022-11-22T22:31:10.914Z,6.60
2022-11-22T22:33:40.294Z,6.60
2022-11-22T22:36:07.718Z,6.60
2022-11-22T22:38:34.772Z,6.50
2022-11-22T22:41:03.604Z,6.60
2022-11-22T22:43:32.137Z,6.60
2022-11-22T22:46:07.322Z,6.50
2022-11-22T22:48:34.352Z,6.40
2022-11-22T22:51:09.133Z,6.50
2022-11-22T22:53:35.800Z,6.40
2022-11-22T22:56:02.553Z,6.40
2022-11-22T22:58:29.171Z,6.40
2022-11-22T23:01:03.091Z,6.40
2022-11-22T23:03:29.673Z,6.30
2022-11-22T23:05:56.314Z,6.30
2022-11-22T23:08:23.076Z,6.30
2022-11-22T23:10:49.638Z,6.30
2022-11-22T23:13:16.163Z,6.30
2022-11-22T23:15:57.770Z,6.40
2022-11-22T23:18:25.170Z,6.30
2022-11-22T23:20:51.970Z,6.30
2022-11-22T23:23:18.657Z,6.30
2022-11-22T23:25:45.235Z,6.40
2022-11-22T23:28:11.774Z,6.40
2022-11-22T23:30:38.345Z,6.40
2022-11-22T23:33:04.895Z,6.40
2022-11-22T23:35:34.988Z,6.40
2022-11-22T23:38:01.704Z,6.40
2022-11-22T23:40:28.989Z,6.40
2022-11-22T23:42:58.745Z,6.40
2022-11-22T23:45:25.486Z,6.40
2022-11-22T23:47:53.780Z,6.50
2022-11-22T23:50:20.353Z,6.50
2022-11-22T23:52:46.953Z,6.50
2022-11-22T23:55:13.647Z,6.50
2022-11-22T23:57:40.217Z,6.50
